createdAt,value
2022-08-05T00:06:02.985Z,101610.41
2022-08-05T00:10:53.458Z,101619.75
2022-08-05T00:16:17.986Z,101617.38
2022-08-05T00:21:59.000Z,101618.63
2022-08-05T00:27:28.412Z,101621.22
2022-08-05T00:33:00.847Z,101618.25
2022-08-05T00:38:33.739Z,101612.03
2022-08-05T00:43:57.119Z,101634.50
2022-08-05T00:49:21.616Z,101622.44
2022-08-05T00:54:45.559Z,101627.03
2022-08-05T01:00:11.228Z,101624.00
2022-08-05T01:05:38.053Z,101621.41
2022-08-05T01:11:07.624Z,101618.41
2022-08-05T01:16:35.304Z,101616.97
2022-08-05T01:22:41.529Z,101615.66
2022-08-05T01:28:19.292Z,101616.22
2022-08-05T01:33:49.037Z,101614.22
2022-08-05T01:39:47.287Z,101636.63
2022-08-05T01:45:03.153Z,101635.63
2022-08-05T01:50:29.337Z,101628.56
2022-08-05T01:55:53.719Z,101649.75
2022-08-05T02:01:23.313Z,101650.53
2022-08-05T02:06:48.516Z,101653.41
2022-08-05T02:12:16.483Z,101644.25
2022-08-05T02:18:32.941Z,101650.88
2022-08-05T02:23:33.787Z,101647.75
2022-08-05T02:28:59.122Z,101649.03
2022-08-05T02:34:24.482Z,101638.00
2022-08-05T02:39:52.243Z,101639.91
2022-08-05T02:45:16.115Z,101622.03
2022-08-05T02:50:43.806Z,101642.53
2022-08-05T02:56:08.496Z,101632.72
2022-08-05T03:01:32.386Z,101636.88
2022-08-05T03:06:59.425Z,101635.94
2022-08-05T03:12:32.825Z,101624.50
2022-08-05T03:17:57.588Z,101633.47
2022-08-05T03:23:24.043Z,101619.53
2022-08-05T03:28:47.458Z,101627.09
2022-08-05T03:34:10.770Z,101623.09
2022-08-05T03:39:47.189Z,101636.44
2022-08-05T03:45:22.338Z,101629.81
2022-08-05T03:50:51.694Z,101640.00
2022-08-05T03:56:30.653Z,101651.88
2022-08-05T04:01:59.264Z,101657.59
2022-08-05T04:07:24.963Z,101651.38
2022-08-05T04:12:49.681Z,101659.28
2022-08-05T04:18:20.417Z,101653.88
2022-08-05T04:24:05.569Z,101654.88
2022-08-05T04:29:30.295Z,101627.63
2022-08-05T04:34:57.591Z,101636.66
2022-08-05T04:40:20.907Z,101649.34
2022-08-05T04:45:48.798Z,101650.38
2022-08-05T04:51:18.583Z,101653.75
2022-08-05T04:56:46.222Z,101659.50
2022-08-05T05:02:41.360Z,101652.44
2022-08-05T05:07:56.405Z,101655.16
2022-08-05T05:13:24.348Z,101651.38
2022-08-05T05:19:16.413Z,101656.69
2022-08-05T05:24:57.927Z,101659.31
2022-08-05T05:30:29.720Z,101658.28
2022-08-05T05:35:58.381Z,101663.13
2022-08-05T05:41:23.166Z,101661.31
2022-08-05T05:46:47.813Z,101657.03
2022-08-05T05:52:29.822Z,101633.16
2022-08-05T05:57:56.000Z,101659.81
2022-08-05T06:03:39.855Z,101655.97
2022-08-05T06:09:17.693Z,101679.44
2022-08-05T06:14:49.685Z,101676.06
2022-08-05T06:20:18.888Z,101686.69
2022-08-05T06:26:13.008Z,101685.91
2022-08-05T06:31:32.019Z,101682.09
2022-08-05T06:36:58.007Z,101687.25
2022-08-05T06:42:23.218Z,101686.13
2022-08-05T06:48:37.133Z,101683.31
2022-08-05T06:53:32.027Z,101667.53
2022-08-05T06:59:08.402Z,101689.88
2022-08-05T07:04:32.905Z,101693.88
2022-08-05T07:09:58.404Z,101696.03
2022-08-05T07:16:01.614Z,101696.69
2022-08-05T07:21:25.766Z,101692.16
2022-08-05T07:26:49.548Z,101694.53
2022-08-05T07:32:14.640Z,101702.41
2022-08-05T07:37:39.540Z,101715.81
2022-08-05T07:43:13.804Z,101716.16
2022-08-05T07:49:02.409Z,101715.19
2022-08-05T07:54:30.805Z,101725.00
2022-08-05T07:59:54.886Z,101734.84
2022-08-05T08:05:20.233Z,101735.69
2022-08-05T08:10:48.747Z,101756.00
2022-08-05T08:16:35.916Z,101758.84
2022-08-05T08:21:56.701Z,101768.72
2022-08-05T08:27:20.597Z,101775.97
2022-08-05T08:32:43.778Z,101768.63
2022-08-05T08:38:08.315Z,101777.19
2022-08-05T08:45:18.981Z,101778.19
2022-08-05T08:50:23.167Z,101780.06
2022-08-05T08:55:13.283Z,101790.47
2022-08-05T09:00:36.991Z,101787.13
2022-08-05T09:06:08.778Z,101789.34
2022-08-05T09:11:52.980Z,101796.03
2022-08-05T09:17:40.598Z,101810.44
2022-08-05T09:23:07.733Z,101807.09
2022-08-05T09:28:35.237Z,101818.50
2022-08-05T09:33:59.764Z,101820.66
2022-08-05T09:39:27.729Z,101833.50
2022-08-05T09:46:05.058Z,101846.09
2022-08-05T09:50:54.588Z,101845.84
2022-08-05T09:56:25.633Z,101851.16
2022-08-05T10:01:58.177Z,101860.75
2022-08-05T10:08:35.171Z,101864.75
2022-08-05T10:13:09.875Z,101864.91
2022-08-05T10:18:35.520Z,101870.81
2022-08-05T10:24:00.442Z,101882.19
2022-08-05T10:30:07.070Z,101877.78
2022-08-05T10:35:11.350Z,101896.56
2022-08-05T10:40:40.479Z,101898.13
2022-08-05T10:46:08.664Z,101893.47
2022-08-05T10:51:58.310Z,101908.03
2022-08-05T10:57:31.000Z,101908.41
2022-08-05T11:03:23.300Z,101924.69
2022-08-05T11:09:31.976Z,101929.13
2022-08-05T11:15:19.574Z,101931.78
2022-08-05T11:20:46.030Z,101942.13
2022-08-05T11:26:11.730Z,101949.78
2022-08-05T11:31:56.486Z,101962.63
2022-08-05T11:38:29.218Z,101964.66
2022-08-05T11:44:04.763Z,101973.09
2022-08-05T11:55:18.174Z,101992.88
2022-08-05T12:00:46.935Z,101976.31
2022-08-05T12:06:17.422Z,101997.56
2022-08-05T12:11:45.881Z,102001.31
2022-08-05T12:18:02.693Z,102001.47
2022-08-05T12:23:09.285Z,102001.00
2022-08-05T12:28:37.026Z,102005.28
2022-08-05T12:34:03.137Z,102009.63
2022-08-05T12:39:28.075Z,102019.59
2022-08-05T12:45:02.857Z,102030.81
2022-08-05T12:50:33.635Z,102031.09
2022-08-05T12:55:56.784Z,102047.28
2022-08-05T13:02:04.164Z,102058.31
2022-08-05T13:07:16.101Z,102042.75
2022-08-05T13:12:58.370Z,102045.38
2022-08-05T13:18:21.887Z,102062.34
2022-08-05T13:23:52.237Z,102057.88
2022-08-05T13:29:19.042Z,102076.81
2022-08-05T13:34:42.391Z,102073.47
2022-08-05T13:40:16.578Z,102075.66
2022-08-05T13:45:51.438Z,102085.50
2022-08-05T13:51:17.777Z,102052.66
2022-08-05T14:02:29.767Z,102112.91
2022-08-05T14:08:03.217Z,102110.19
2022-08-05T14:13:35.973Z,102113.56
2022-08-05T14:18:59.067Z,102118.78
2022-08-05T14:24:29.942Z,102066.56
2022-08-05T14:29:58.201Z,102143.75
2022-08-05T14:35:22.859Z,102157.91
2022-08-05T14:40:48.145Z,102161.75
2022-08-05T14:46:12.758Z,102155.44
2022-08-05T14:51:42.467Z,102159.28
2022-08-05T14:57:09.832Z,102167.53
2022-08-05T15:02:38.313Z,102170.59
2022-08-05T15:08:09.076Z,102171.97
2022-08-05T15:13:45.805Z,102165.34
2022-08-05T15:19:23.298Z,102166.22
2022-08-05T15:24:47.043Z,102170.97
2022-08-05T15:30:14.249Z,102180.38
2022-08-05T15:35:45.411Z,102181.69
2022-08-05T15:41:20.847Z,102194.09
2022-08-05T15:46:44.837Z,102184.72
2022-08-05T15:52:16.694Z,102187.00
2022-08-05T15:57:40.531Z,102192.66
2022-08-05T16:03:05.241Z,102201.28
2022-08-05T16:08:30.584Z,102203.16
2022-08-05T16:13:53.997Z,102210.19
2022-08-05T16:20:02.822Z,102208.94
2022-08-05T16:25:33.840Z,102213.75
2022-08-05T16:30:58.521Z,102217.31
2022-08-05T16:36:23.854Z,102223.63
2022-08-05T16:42:15.413Z,102218.59
2022-08-05T16:47:36.117Z,102232.34
2022-08-05T16:53:01.617Z,102236.41
2022-08-05T16:58:40.723Z,102240.00
2022-08-05T17:04:05.357Z,102234.88
2022-08-05T17:10:11.622Z,102243.13
2022-08-05T17:15:49.669Z,102258.38
2022-08-05T17:21:17.369Z,102256.13
2022-08-05T17:26:42.834Z,102256.78
2022-08-05T17:32:08.411Z,102264.66
2022-08-05T17:37:40.020Z,102252.41
2022-08-05T17:43:07.555Z,102260.44
2022-08-05T17:48:32.336Z,102267.16
2022-08-05T17:53:55.516Z,102260.88
2022-08-05T17:59:22.641Z,102274.69
2022-08-05T18:04:49.927Z,102286.34
2022-08-05T18:10:21.177Z,102280.53
2022-08-05T18:15:46.745Z,102302.00
2022-08-05T18:21:21.122Z,102310.97
2022-08-05T18:26:51.471Z,102309.88
2022-08-05T18:32:16.613Z,102330.81
2022-08-05T18:37:41.785Z,102328.09
2022-08-05T18:43:09.088Z,102335.44
2022-08-05T18:48:41.840Z,102337.00
2022-08-05T18:54:06.950Z,102342.19
2022-08-05T18:59:43.686Z,102346.13
2022-08-05T19:06:13.288Z,102342.53
2022-08-05T19:11:05.049Z,102339.09
2022-08-05T19:16:46.611Z,102358.78
2022-08-05T19:22:10.443Z,102364.78
2022-08-05T19:27:35.207Z,102342.84
2022-08-05T19:33:00.269Z,102363.09
2022-08-05T19:38:27.527Z,102373.16
2022-08-05T19:44:05.576Z,102383.16
2022-08-05T19:49:32.950Z,102392.91
2022-08-05T19:54:57.013Z,102378.88
2022-08-05T20:00:25.038Z,102413.50
2022-08-05T20:05:51.631Z,102420.63
2022-08-05T20:11:18.106Z,102424.00
2022-08-05T20:16:46.460Z,102431.28
2022-08-05T20:22:09.898Z,102433.28
2022-08-05T20:27:41.870Z,102447.22
2022-08-05T20:33:06.711Z,102452.31
2022-08-05T20:38:35.306Z,102450.56
2022-08-05T20:44:03.508Z,102440.31
2022-08-05T20:49:40.165Z,102456.69
2022-08-05T20:55:54.832Z,102463.03
2022-08-05T21:00:54.257Z,102459.72
2022-08-05T21:06:27.847Z,102457.19
2022-08-05T21:12:10.553Z,102442.63
2022-08-05T21:17:34.883Z,102467.09
2022-08-05T21:23:00.414Z,102468.16
2022-08-05T21:28:23.804Z,102478.59
2022-08-05T21:33:47.845Z,102480.16
2022-08-05T21:39:16.998Z,102478.19
2022-08-05T21:44:49.743Z,102481.78
2022-08-05T21:50:13.632Z,102477.78
2022-08-05T21:56:04.140Z,102486.44
2022-08-05T22:01:24.773Z,102488.22
2022-08-05T22:06:48.089Z,102485.53
2022-08-05T22:12:16.384Z,102488.44
2022-08-05T22:17:56.399Z,102492.34
2022-08-05T22:24:01.040Z,102487.03
2022-08-05T22:29:26.793Z,102497.63
2022-08-05T22:34:53.984Z,102500.53
2022-08-05T22:40:20.339Z,102499.03
2022-08-05T22:45:45.106Z,102502.75
2022-08-05T22:51:08.479Z,102514.31
2022-08-05T22:56:39.895Z,102515.34
2022-08-05T23:02:07.605Z,102513.91
2022-08-05T23:07:31.067Z,102519.41
2022-08-05T23:12:55.697Z,102522.19
2022-08-05T23:18:20.410Z,102533.56
2022-08-05T23:23:46.030Z,102531.03
2022-08-05T23:29:09.859Z,102541.78
2022-08-05T23:34:40.520Z,102544.47
2022-08-05T23:40:09.323Z,102557.91
2022-08-05T23:45:33.066Z,102557.22
2022-08-05T23:50:58.590Z,102560.69
2022-08-05T23:56:27.289Z,102564.25
